Time;durP1;ratioP1;P1;durP2;ratioP2;P2;SDS_P1;SDS_P2;PMS_P1;PMS_P2;Temp;Humidity;BMP_temperature;BMP_pressure;BME280_temperature;BME280_humidity;BME280_pressure;Samples;Min_cycle;Max_cycle;Signal;HPM_P1;HPM_P2
2023/03/03 00:00:22;;;;;;;22.50;10.13;;;;;;;5.22;52.50;100020.81;7712770;32;37942;-79
2023/03/03 00:04:38;;;;;;;19.12;10.18;;;;;;;5.36;52.56;100018.75;7711973;32;37188;-80
2023/03/03 00:08:55;;;;;;;18.75;9.85;;;;;;;5.49;52.16;100017.72;7712780;32;39708;-80
2023/03/03 00:13:22;;;;;;;16.62;9.05;;;;;;;5.45;52.16;100027.37;7712823;32;40166;-79
2023/03/03 00:17:39;;;;;;;20.77;10.25;;;;;;;5.43;51.69;100019.47;7712744;32;37580;-80
2023/03/03 00:21:56;;;;;;;21.08;11.12;;;;;;;5.11;52.40;100013.50;7712718;32;37128;-79
2023/03/03 00:26:35;;;;;;;20.55;10.95;;;;;;;4.98;53.41;100019.09;7711598;32;40026;-80
2023/03/03 00:30:53;;;;;;;21.52;9.48;;;;;;;5.26;52.59;100021.22;7711185;32;40038;-80
2023/03/03 00:35:30;;;;;;;19.17;9.80;;;;;;;5.08;52.92;100016.69;7712531;32;38816;-80
2023/03/03 00:39:46;;;;;;;18.55;9.70;;;;;;;5.18;52.48;100011.53;7712537;32;37299;-81
2023/03/03 00:44:22;;;;;;;17.77;9.82;;;;;;;5.00;52.76;100014.28;7712562;32;40425;-80
2023/03/03 00:48:42;;;;;;;19.48;9.60;;;;;;;4.84;53.75;100004.94;7700662;32;39695;-80
2023/03/03 00:53:01;;;;;;;23.23;10.23;;;;;;;4.99;53.76;100004.56;7712289;32;37848;-80
2023/03/03 00:57:17;;;;;;;18.83;10.48;;;;;;;5.18;52.92;99994.50;7712373;32;37908;-79
2023/03/03 01:01:33;;;;;;;20.70;10.60;;;;;;;5.02;53.39;99980.59;7711508;32;39238;-79
2023/03/03 01:05:50;;;;;;;23.30;10.43;;;;;;;5.00;53.32;99984.56;7711542;32;40016;-80
2023/03/03 01:10:07;;;;;;;21.30;9.25;;;;;;;5.03;53.33;99978.72;7712062;32;38023;-80
2023/03/03 01:14:23;;;;;;;18.70;9.85;;;;;;;4.94;53.71;99980.91;7712618;32;35186;-79
2023/03/03 01:18:40;;;;;;;21.10;9.88;;;;;;;5.26;53.26;99975.25;7710882;32;39340;-81
2023/03/03 01:22:57;;;;;;;19.02;9.20;;;;;;;5.27;52.93;99966.88;7712008;32;39924;-79
2023/03/03 01:27:13;;;;;;;17.60;9.13;;;;;;;5.31;52.79;99972.66;7711585;32;37511;-79
2023/03/03 01:31:29;;;;;;;16.00;9.85;;;;;;;5.35;53.02;99967.62;7711891;32;37049;-79
2023/03/03 01:35:46;;;;;;;17.65;9.85;;;;;;;5.39;52.78;99960.69;7711957;32;39445;-80
2023/03/03 01:40:05;;;;;;;19.87;10.73;;;;;;;5.21;53.18;99957.03;7711797;32;41372;-80
2023/03/03 01:44:21;;;;;;;16.90;9.30;;;;;;;5.35;53.19;99956.81;7711688;32;37897;-80
2023/03/03 01:48:43;;;;;;;17.67;9.55;;;;;;;5.42;53.28;99952.12;7711847;32;37744;-79
2023/03/03 01:53:00;;;;;;;19.73;9.82;;;;;;;4.99;55.24;99964.84;7710650;32;39199;-81
2023/03/03 01:57:23;;;;;;;17.87;10.32;;;;;;;4.86;55.21;99954.22;7710060;32;39666;-80
2023/03/03 02:01:40;;;;;;;22.37;10.80;;;;;;;4.98;54.48;99951.56;7711249;32;38687;-79
2023/03/03 02:05:59;;;;;;;21.40;10.00;;;;;;;4.58;55.05;99946.72;7710247;32;37222;-80
2023/03/03 02:10:18;;;;;;;18.65;10.40;;;;;;;4.66;55.05;99949.13;7710177;32;40029;-80
2023/03/03 02:14:34;;;;;;;19.62;9.32;;;;;;;4.55;55.29;99941.78;7711355;32;40074;-80
2023/03/03 02:18:50;;;;;;;22.35;9.73;;;;;;;4.42;55.40;99949.00;7711261;32;37917;-81
2023/03/03 02:23:21;;;;;;;18.23;9.43;;;;;;;4.55;54.50;99948.00;7709553;32;35887;-81
2023/03/03 02:27:37;;;;;;;24.63;10.65;;;;;;;4.78;54.19;99952.69;7710694;32;39238;-80
2023/03/03 02:31:53;;;;;;;21.80;10.63;;;;;;;4.56;55.74;99948.84;7709631;32;40801;-80
2023/03/03 02:36:16;;;;;;;19.05;10.70;;;;;;;4.98;54.17;99940.75;7711035;32;37518;-79
2023/03/03 02:40:35;;;;;;;20.40;10.40;;;;;;;4.77;54.46;99950.22;7711084;32;37079;-79
2023/03/03 02:44:51;;;;;;;18.77;10.93;;;;;;;4.80;54.49;99938.94;7709956;32;39293;-79
2023/03/03 02:49:10;;;;;;;25.02;11.85;;;;;;;4.47;56.44;99946.44;7711264;32;39310;-80
2023/03/03 02:53:26;;;;;;;23.70;10.77;;;;;;;4.54;56.45;99937.44;7710893;32;37888;-81
2023/03/03 02:57:42;;;;;;;24.00;11.85;;;;;;;4.43;56.55;99939.87;7710001;32;37959;-79
2023/03/03 03:01:59;;;;;;;20.60;9.98;;;;;;;4.37;55.95;99940.75;7708847;32;40462;-79
2023/03/03 03:06:15;;;;;;;22.67;10.82;;;;;;;4.09;55.97;99934.03;7709805;32;38353;-79
2023/03/03 03:10:31;;;;;;;21.70;10.40;;;;;;;4.13;56.51;99932.53;7710090;32;38042;-79
2023/03/03 03:14:47;;;;;;;21.30;11.20;;;;;;;3.95;57.60;99937.94;7709932;32;37155;-79
2023/03/03 03:19:04;;;;;;;24.42;11.35;;;;;;;3.89;56.71;99928.03;7710500;32;39737;-80
2023/03/03 03:23:23;;;;;;;21.27;11.05;;;;;;;3.54;56.81;99920.53;7710228;32;40840;-79
2023/03/03 03:27:39;;;;;;;24.87;11.18;;;;;;;4.24;54.76;99919.31;7709422;32;38749;-79
2023/03/03 03:31:55;;;;;;;20.83;9.70;;;;;;;4.02;56.61;99914.41;7709078;32;37775;-79
2023/03/03 03:36:12;;;;;;;16.48;9.48;;;;;;;4.26;56.45;99922.63;7708981;32;39917;-80
2023/03/03 03:40:28;;;;;;;23.95;10.90;;;;;;;4.03;56.64;99915.22;7710450;32;38988;-79
2023/03/03 03:44:44;;;;;;;20.92;10.65;;;;;;;3.93;57.51;99918.44;7709839;32;39241;-80
2023/03/03 03:49:01;;;;;;;18.55;10.00;;;;;;;3.85;57.76;99916.06;7708719;32;36844;-79
2023/03/03 03:53:18;;;;;;;21.00;9.85;;;;;;;3.59;57.44;99915.28;7708514;32;40098;-79
2023/03/03 03:57:34;;;;;;;20.15;10.88;;;;;;;3.61;57.23;99912.38;7708866;32;39915;-79
2023/03/03 04:01:50;;;;;;;18.05;9.90;;;;;;;3.76;57.66;99913.66;7709343;32;37893;-79
2023/03/03 04:06:06;;;;;;;19.12;9.95;;;;;;;3.98;56.44;99899.72;7709530;32;36934;-79
2023/03/03 04:10:23;;;;;;;19.42;10.35;;;;;;;3.74;56.72;99907.66;7709428;32;39231;-80
2023/03/03 04:14:39;;;;;;;18.90;10.48;;;;;;;3.70;56.96;99906.47;7709133;32;40733;-78
2023/03/03 04:18:55;;;;;;;18.05;9.43;;;;;;;4.01;55.92;99911.94;7708677;32;36200;-80
2023/03/03 04:23:11;;;;;;;16.50;9.15;;;;;;;3.85;59.53;99902.59;7708457;32;37837;-79
2023/03/03 04:27:27;;;;;;;22.15;10.30;;;;;;;3.86;57.05;99906.91;7708909;32;39243;-80
2023/03/03 04:31:44;;;;;;;20.55;10.85;;;;;;;3.97;56.44;99894.53;7708254;32;40048;-80
2023/03/03 04:36:00;;;;;;;17.00;9.50;;;;;;;3.89;56.76;99901.06;7708526;32;38701;-80
2023/03/03 04:40:17;;;;;;;21.40;9.05;;;;;;;3.89;56.45;99901.06;7710976;32;37045;-79
2023/03/03 04:44:33;;;;;;;20.50;10.05;;;;;;;3.82;56.15;99893.06;7712472;32;39277;-79
2023/03/03 04:48:49;;;;;;;20.25;9.80;;;;;;;3.97;56.33;99898.09;7712212;32;40793;-79
2023/03/03 04:53:05;;;;;;;19.27;10.80;;;;;;;4.16;56.17;99890.78;7712246;32;37881;-79
2023/03/03 04:57:22;;;;;;;20.77;10.25;;;;;;;3.72;57.10;99885.47;7711487;32;37104;-79
2023/03/03 05:01:38;;;;;;;19.73;10.45;;;;;;;3.75;56.73;99895.00;7711820;32;39268;-79
2023/03/03 05:05:54;;;;;;;20.98;11.15;;;;;;;3.73;57.01;99892.53;7712235;32;39860;-80
2023/03/03 05:10:11;;;;;;;21.55;10.75;;;;;;;3.63;57.50;99897.62;7711991;32;38082;-79
2023/03/03 05:14:27;;;;;;;21.65;10.52;;;;;;;3.76;57.18;99900.19;7712023;32;37130;-79
2023/03/03 05:18:44;;;;;;;22.27;10.35;;;;;;;3.51;57.98;99889.44;7711496;32;39395;-79
2023/03/03 05:23:00;;;;;;;23.00;10.45;;;;;;;3.43;57.42;99888.91;7712012;32;40024;-79
2023/03/03 05:27:17;;;;;;;20.25;9.98;;;;;;;3.36;57.65;99881.72;7711919;32;37600;-78
2023/03/03 05:31:33;;;;;;;21.17;9.55;;;;;;;3.35;57.92;99882.75;7711865;32;37155;-79
2023/03/03 05:35:54;;;;;;;18.30;10.20;;;;;;;3.52;57.36;99884.88;7711512;32;39250;-81
2023/03/03 05:40:11;;;;;;;22.10;11.45;;;;;;;3.57;57.36;99888.56;7711883;32;40834;-79
2023/03/03 05:44:27;;;;;;;22.95;11.55;;;;;;;3.45;58.24;99893.03;7711664;32;38011;-80
2023/03/03 05:48:44;;;;;;;22.92;10.07;;;;;;;3.70;57.88;99887.56;7711312;32;37123;-80
2023/03/03 05:53:00;;;;;;;19.25;10.65;;;;;;;3.78;57.06;99899.09;7710511;32;39444;-80
2023/03/03 05:57:16;;;;;;;21.92;10.60;;;;;;;3.69;58.32;99894.03;7710788;32;40053;-80
2023/03/03 06:01:33;;;;;;;21.70;10.75;;;;;;;3.86;58.10;99894.25;7711476;32;37556;-79
2023/03/03 06:05:49;;;;;;;21.92;10.68;;;;;;;3.71;59.43;99902.72;7711986;32;34951;-79
2023/03/03 06:10:06;;;;;;;21.17;11.60;;;;;;;3.73;59.30;99906.00;7711501;32;39291;-79
2023/03/03 06:14:22;;;;;;;18.35;10.27;;;;;;;3.62;59.69;99914.81;7711407;32;39956;-79
2023/03/03 06:18:41;;;;;;;19.08;11.18;;;;;;;3.61;59.40;99917.78;7710512;32;37890;-81
2023/03/03 06:22:58;;;;;;;21.80;10.77;;;;;;;3.72;59.10;99922.41;7711288;32;37122;-79
2023/03/03 06:27:14;;;;;;;21.87;11.90;;;;;;;3.73;59.52;99921.38;7711679;32;37721;-78
2023/03/03 06:31:30;;;;;;;23.08;12.05;;;;;;;3.73;60.60;99932.16;7709917;32;40902;-80
2023/03/03 06:35:53;;;;;;;21.67;12.25;;;;;;;4.06;59.12;99939.87;7711095;32;38712;-78
2023/03/03 06:40:12;;;;;;;28.55;14.93;;;;;;;4.31;58.58;99936.25;7711224;32;37063;-80
2023/03/03 06:44:28;;;;;;;31.80;17.05;;;;;;;4.40;58.12;99926.81;7711009;32;40525;-82
2023/03/03 06:48:47;;;;;;;29.60;15.35;;;;;;;4.67;57.38;99921.03;7710284;32;40073;-80
2023/03/03 06:53:14;;;;;;;27.37;14.35;;;;;;;4.74;57.43;99924.47;7710878;32;37921;-81
2023/03/03 06:57:32;;;;;;;23.95;12.48;;;;;;;4.92;57.35;99922.78;7715237;32;36817;-81
2023/03/03 07:01:49;;;;;;;24.50;12.50;;;;;;;4.87;57.35;99923.47;7724930;32;39083;-82
2023/03/03 07:06:21;;;;;;;25.85;13.23;;;;;;;5.07;56.80;99933.94;7709859;32;39925;-82
2023/03/03 07:10:40;;;;;;;26.17;13.55;;;;;;;4.89;57.61;99926.75;7708561;32;37838;-83
2023/03/03 07:15:22;;;;;;;26.27;13.05;;;;;;;5.01;57.25;99929.47;7710506;32;37333;-82
2023/03/03 07:19:40;;;;;;;31.15;13.18;;;;;;;5.22;56.87;99920.81;7698897;32;336572;-82
2023/03/03 07:23:56;;;;;;;30.60;15.23;;;;;;;5.17;58.06;99926.09;7709957;32;40062;-83
2023/03/03 07:28:22;;;;;;;26.85;13.10;;;;;;;5.38;58.56;99935.53;7709806;32;38185;-80
2023/03/03 07:32:46;;;;;;;24.25;12.93;;;;;;;5.86;57.44;99928.22;7683897;32;35209;-80
2023/03/03 07:37:30;;;;;;;24.02;12.05;;;;;;;5.84;56.92;99927.63;7682216;32;39957;-80
2023/03/03 07:41:46;;;;;;;24.92;11.98;;;;;;;6.21;57.03;99927.38;7692140;32;41221;-80
2023/03/03 07:46:29;;;;;;;21.65;10.23;;;;;;;6.47;56.88;99931.41;7708477;32;37643;-81
2023/03/03 07:50:47;;;;;;;22.45;10.93;;;;;;;6.92;56.11;99927.91;7708387;32;37081;-80
2023/03/03 07:55:32;;;;;;;24.45;12.30;;;;;;;7.09;55.97;99922.50;7708730;32;39195;-81
2023/03/03 07:59:51;;;;;;;19.42;12.35;;;;;;;7.21;55.66;99930.56;7717853;32;40119;-81
2023/03/03 08:04:23;;;;;;;27.60;12.37;;;;;;;7.14;55.01;99932.63;7735848;32;37763;-81
2023/03/03 08:08:42;;;;;;;23.20;11.65;;;;;;;7.66;53.39;99924.19;7735829;32;37942;-81
2023/03/03 08:13:01;;;;;;;30.75;11.90;;;;;;;7.74;54.12;99920.22;7737169;32;37921;-80
2023/03/03 08:17:22;;;;;;;26.12;11.65;;;;;;;7.31;55.10;99925.31;7738147;32;40747;-81
2023/03/03 08:21:38;;;;;;;21.33;11.63;;;;;;;7.23;55.34;99933.84;7738791;32;37824;-81
2023/03/03 08:25:55;;;;;;;22.27;12.37;;;;;;;7.96;54.00;99931.13;7739197;32;37631;-80
2023/03/03 08:30:11;;;;;;;22.33;12.63;;;;;;;8.10;53.33;99931.56;7738933;32;39718;-80
2023/03/03 08:34:27;;;;;;;33.88;14.05;;;;;;;7.82;54.01;99933.37;7739215;32;39438;-81
2023/03/03 08:38:44;;;;;;;32.67;14.90;;;;;;;8.43;52.97;99936.09;7738704;32;38564;-81
2023/03/03 08:43:02;;;;;;;33.33;17.27;;;;;;;8.74;52.66;99914.66;7738997;32;36262;-81
2023/03/03 08:47:18;;;;;;;33.85;18.45;;;;;;;8.79;52.38;99911.19;7738980;32;39979;-81
2023/03/03 08:51:34;;;;;;;34.88;17.52;;;;;;;8.63;51.75;99919.19;7738388;32;40878;-81
2023/03/03 08:55:50;;;;;;;29.00;16.45;;;;;;;9.01;51.55;99919.28;7738786;32;37534;-81
2023/03/03 09:00:10;;;;;;;27.55;15.45;;;;;;;9.38;51.88;99913.03;7738600;32;36772;-81
2023/03/03 09:04:26;;;;;;;34.67;15.90;;;;;;;9.81;50.65;99915.78;7738758;32;39292;-82
2023/03/03 09:08:42;;;;;;;29.33;16.20;;;;;;;10.08;49.71;99911.03;7738557;32;40824;-82
2023/03/03 09:13:12;;;;;;;29.20;15.48;;;;;;;10.29;49.49;99913.81;7737344;32;37564;-81
2023/03/03 09:17:36;;;;;;;30.60;15.65;;;;;;;10.41;48.64;99908.19;7738526;32;37918;-82
2023/03/03 09:21:55;;;;;;;34.67;14.82;;;;;;;11.08;47.18;99898.22;7738000;32;39140;-81
2023/03/03 09:26:25;;;;;;;25.62;13.40;;;;;;;11.76;46.71;99905.22;7738303;32;39912;-81
2023/03/03 09:30:46;;;;;;;25.80;12.55;;;;;;;11.66;47.26;99906.09;7738063;32;37957;-82
2023/03/03 09:35:39;;;;;;;21.90;10.85;;;;;;;12.47;45.49;99895.97;7737208;32;37667;-82
2023/03/03 09:39:57;;;;;;;27.37;12.32;;;;;;;12.65;44.82;99894.50;7738086;32;39167;-81
2023/03/03 09:44:44;;;;;;;27.52;9.82;;;;;;;12.89;43.81;99883.66;7737868;32;39910;-81
2023/03/03 09:49:02;;;;;;;22.15;9.07;;;;;;;13.11;43.89;99882.44;7738291;32;37870;-81
2023/03/03 09:53:40;;;;;;;21.52;9.40;;;;;;;13.05;42.42;99898.06;7737852;32;36866;-81
2023/03/03 09:58:19;;;;;;;16.02;8.85;;;;;;;13.17;42.63;99888.66;7737593;32;39623;-81
2023/03/03 10:02:38;;;;;;;16.48;7.85;;;;;;;13.00;42.46;99891.81;7736489;32;39697;-82
2023/03/03 10:07:10;;;;;;;18.52;8.43;;;;;;;13.24;40.97;99891.88;7737043;32;37989;-81
2023/03/03 10:11:54;;;;;;;18.23;8.25;;;;;;;13.22;41.93;99894.09;7736978;32;37089;-81
2023/03/03 10:16:16;;;;;;;15.00;6.90;;;;;;;12.91;41.75;99897.06;7737465;32;39333;-82
2023/03/03 10:20:57;;;;;;;16.15;8.20;;;;;;;12.70;42.35;99905.41;7738178;32;40833;-80
2023/03/03 10:25:19;;;;;;;15.27;7.75;;;;;;;12.00;43.23;99903.56;7727182;32;38641;-82
2023/03/03 10:29:38;;;;;;;14.40;6.62;;;;;;;12.74;42.45;99900.19;7738354;32;36942;-82
2023/03/03 10:34:12;;;;;;;14.73;8.00;;;;;;;13.10;41.57;99895.28;7738225;32;39763;-82
2023/03/03 10:39:17;;;;;;;14.65;6.82;;;;;;;13.50;41.25;99893.34;7736820;32;39618;-82
2023/03/03 10:43:38;;;;;;;;;;;;;;;12.43;41.78;99899.56;7733506;32;38435;-82
2023/03/03 10:48:22;;;;;;;16.35;8.10;;;;;;;12.87;41.58;99885.06;7738320;32;37216;-83
2023/03/03 10:52:52;;;;;;;21.73;10.43;;;;;;;12.12;42.84;99886.03;7737990;32;38859;-82
2023/03/03 10:57:23;;;;;;;25.50;11.38;;;;;;;12.70;40.38;99878.06;7737980;32;40818;-83
2023/03/03 11:01:59;;;;;;;25.23;12.70;;;;;;;13.25;40.08;99861.50;7737788;32;38029;-81
2023/03/03 11:06:55;;;;;;;24.92;11.95;;;;;;;13.38;40.27;99873.72;7737779;32;37085;-83
2023/03/03 11:11:35;;;;;;;26.52;11.90;;;;;;;13.77;39.92;99870.03;7737914;32;38154;-83
2023/03/03 11:16:30;;;;;;;23.75;11.12;;;;;;;14.18;39.11;99863.25;7736462;32;40834;-82
2023/03/03 11:21:25;;;;;;;21.35;10.82;;;;;;;14.42;40.03;99858.53;7726816;32;37520;-82
2023/03/03 11:26:16;;;;;;;19.33;10.07;;;;;;;14.09;38.18;99852.12;7736653;32;36999;-82
2023/03/03 11:30:57;;;;;;;20.55;10.45;;;;;;;13.83;37.11;99846.97;7730203;32;39655;-82
2023/03/03 11:35:33;;;;;;;18.77;10.23;;;;;;;13.92;37.98;99832.59;7736184;32;39985;-83
2023/03/03 11:39:52;;;;;;;20.10;10.48;;;;;;;14.67;36.91;99814.59;7736214;32;36935;-82
2023/03/03 11:44:28;;;;;;;17.60;10.93;;;;;;;14.74;36.08;99815.03;7735731;32;37149;-81
2023/03/03 11:49:01;;;;;;;20.25;11.02;;;;;;;14.58;35.86;99820.75;7738062;32;39306;-83
2023/03/03 11:53:48;;;;;;;20.90;11.12;;;;;;;14.27;34.52;99818.41;7738619;32;40111;-82
2023/03/03 11:58:28;;;;;;;21.33;10.75;;;;;;;14.68;34.84;99805.22;7739116;32;38135;-82
2023/03/03 12:03:04;;;;;;;20.40;11.27;;;;;;;15.07;34.05;99795.81;7738323;32;37936;-82
2023/03/03 12:07:48;;;;;;;21.08;12.05;;;;;;;14.03;35.55;99791.06;7739774;32;39270;-81
2023/03/03 12:12:12;;;;;;;23.98;12.60;;;;;;;14.26;35.40;99794.03;7739710;32;40573;-82
2023/03/03 12:16:43;;;;;;;21.37;11.77;;;;;;;14.63;34.45;99792.41;7738672;32;38839;-82
2023/03/03 12:21:12;;;;;;;23.30;12.63;;;;;;;14.35;35.35;99797.75;7739444;32;37166;-82
2023/03/03 12:26:12;;;;;;;24.92;13.75;;;;;;;14.20;34.45;99793.28;7739726;32;39975;-82
2023/03/03 12:30:31;;;;;;;22.42;13.43;;;;;;;14.30;34.60;99795.09;7629473;32;39600;-82
2023/03/03 12:35:02;;;;;;;25.80;14.20;;;;;;;13.67;37.03;99796.97;7694653;32;37695;-83
2023/03/03 12:39:36;;;;;;;25.20;13.90;;;;;;;14.25;37.08;99797.91;7739562;32;37209;-82
2023/03/03 12:44:14;;;;;;;20.65;11.10;;;;;;;14.78;34.51;99794.09;7739514;32;39702;-82
2023/03/03 12:48:43;;;;;;;19.90;11.50;;;;;;;15.19;33.24;99793.38;7738485;32;40754;-82
2023/03/03 12:53:34;;;;;;;21.67;10.57;;;;;;;15.42;31.43;99793.50;7739000;32;38678;-83
2023/03/03 12:57:59;;;;;;;18.73;11.77;;;;;;;15.55;30.67;99789.97;7739375;32;37139;-82
2023/03/03 13:02:41;;;;;;;20.27;11.50;;;;;;;15.53;31.14;99787.53;7737369;32;39328;-81
2023/03/03 13:07:19;;;;;;;20.77;10.73;;;;;;;15.89;30.29;99769.53;7738880;32;39960;-82
2023/03/03 13:11:59;;;;;;;26.02;9.75;;;;;;;16.17;29.14;99774.97;7737588;32;38011;-82
2023/03/03 13:16:26;;;;;;;22.15;11.48;;;;;;;16.15;29.75;99776.06;7738845;32;37736;-81
2023/03/03 13:20:56;;;;;;;35.10;12.02;;;;;;;15.82;29.86;99777.38;7738479;32;39943;-83
2023/03/03 13:25:19;;;;;;;25.65;12.18;;;;;;;15.82;30.25;99771.87;7738625;32;41591;-82
2023/03/03 13:30:08;;;;;;;20.15;11.60;;;;;;;14.69;31.34;99763.78;7737310;32;37984;-83
2023/03/03 13:34:24;;;;;;;18.35;10.55;;;;;;;13.90;32.67;99770.69;7727265;32;37183;-81
2023/03/03 13:38:51;;;;;;;24.63;11.52;;;;;;;13.23;33.32;99769.78;7738473;32;38890;-81
2023/03/03 13:43:19;;;;;;;19.73;11.35;;;;;;;13.41;33.28;99765.53;7737460;32;40981;-81
2023/03/03 13:47:44;;;;;;;20.77;12.10;;;;;;;13.47;33.15;99754.22;7738712;32;38039;-78
2023/03/03 13:52:07;;;;;;;22.80;12.90;;;;;;;13.70;33.58;99749.03;7738640;32;37887;-82
2023/03/03 13:56:35;;;;;;;21.33;12.32;;;;;;;13.56;33.45;99731.69;7737553;32;39934;-84
2023/03/03 14:00:57;;;;;;;24.20;12.68;;;;;;;13.66;34.11;99734.25;7738588;32;39949;-85
2023/03/03 14:05:40;;;;;;;24.25;13.25;;;;;;;13.97;34.13;99739.34;7737075;32;38742;-85
2023/03/03 14:10:24;;;;;;;30.12;15.18;;;;;;;14.39;33.04;99726.66;7737946;32;37195;-83
2023/03/03 14:15:23;;;;;;;24.37;13.98;;;;;;;14.22;32.75;99735.44;7738356;32;40063;-84
2023/03/03 14:20:13;;;;;;;23.08;13.95;;;;;;;14.73;32.94;99726.41;7664627;32;39834;-87
2023/03/03 14:24:29;;;;;;;24.87;13.15;;;;;;;14.41;32.50;99729.91;7730978;32;38745;-85
2023/03/03 14:28:48;;;;;;;22.60;11.02;;;;;;;14.76;31.25;99730.47;7737201;32;35378;-84
2023/03/03 14:33:10;;;;;;;21.85;11.80;;;;;;;14.27;31.07;99725.19;7737901;32;39996;-84
2023/03/03 14:37:45;;;;;;;22.27;12.13;;;;;;;14.31;31.28;99730.88;7737769;32;39881;-85
2023/03/03 14:42:14;;;;;;;26.10;13.75;;;;;;;14.49;31.00;99723.75;7726196;32;38040;-84
2023/03/03 14:46:35;;;;;;;23.58;13.07;;;;;;;15.24;30.30;99727.37;7736571;32;37917;-84
2023/03/03 14:51:16;;;;;;;32.65;12.75;;;;;;;15.25;30.08;99726.28;7737896;32;39404;-86
2023/03/03 14:55:37;;;;;;;20.02;12.07;;;;;;;15.06;30.23;99717.31;7737655;32;40113;-86
2023/03/03 15:00:09;;;;;;;21.55;13.05;;;;;;;15.07;30.33;99714.25;7737650;32;37902;-85
2023/03/03 15:04:29;;;;;;;20.85;12.98;;;;;;;14.85;31.03;99717.69;7737305;32;37075;-84
2023/03/03 15:08:48;;;;;;;28.02;14.02;;;;;;;15.53;30.60;99720.78;7736264;32;39376;-87
2023/03/03 15:13:19;;;;;;;27.85;13.50;;;;;;;15.53;29.82;99716.09;7737431;32;40868;-84
2023/03/03 15:17:37;;;;;;;26.37;12.95;;;;;;;15.38;29.48;99714.47;7736278;32;38152;-84
2023/03/03 15:22:03;;;;;;;21.48;12.57;;;;;;;14.96;29.57;99726.56;7736475;32;37228;-85
2023/03/03 15:26:33;;;;;;;22.20;12.23;;;;;;;15.71;28.79;99719.00;7737502;32;39247;-84
2023/03/03 15:31:11;;;;;;;27.45;14.65;;;;;;;18.04;25.25;99708.06;7737233;32;39990;-84
2023/03/03 15:36:10;;;;;;;23.05;13.20;;;;;;;19.27;23.36;99706.69;7727490;32;37917;-85
2023/03/03 15:40:27;;;;;;;24.73;13.13;;;;;;;18.32;24.06;99711.28;7660826;32;37648;-84
2023/03/03 15:45:06;;;;;;;24.95;13.62;;;;;;;17.34;25.72;99720.84;7736986;32;39968;-82
2023/03/03 15:50:01;;;;;;;21.00;12.73;;;;;;;16.98;26.38;99714.38;7736838;32;40753;-84
2023/03/03 15:54:42;;;;;;;22.13;13.57;;;;;;;16.15;27.40;99726.56;7735558;32;39414;-85
2023/03/03 15:59:22;;;;;;;26.10;14.27;;;;;;;15.78;27.22;99735.94;7736624;32;37120;-83
2023/03/03 16:03:59;;;;;;;25.75;14.30;;;;;;;14.77;28.73;99732.09;7736700;32;38893;-84
2023/03/03 16:08:43;;;;;;;26.50;15.00;;;;;;;13.94;30.03;99727.06;7736559;32;40092;-85
2023/03/03 16:13:20;;;;;;;26.73;14.15;;;;;;;14.57;29.06;99725.00;7717778;32;37941;-83
2023/03/03 16:17:55;;;;;;;28.23;16.52;;;;;;;14.39;29.59;99721.19;7736538;32;37208;-82
2023/03/03 16:22:20;;;;;;;29.55;15.57;;;;;;;13.87;31.17;99732.91;7735581;32;40013;-82
2023/03/03 16:26:53;;;;;;;29.30;16.30;;;;;;;13.66;31.49;99734.25;7735997;32;39756;-82
2023/03/03 16:31:20;;;;;;;27.00;15.45;;;;;;;13.30;32.12;99734.69;7735826;32;37922;-82
2023/03/03 16:35:54;;;;;;;30.30;16.62;;;;;;;13.37;32.14;99732.44;7715084;32;37155;-82
2023/03/03 16:40:22;;;;;;;29.40;15.80;;;;;;;13.19;32.51;99742.19;7711090;32;40338;-83
2023/03/03 16:44:47;;;;;;;26.95;16.67;;;;;;;13.14;33.54;99742.22;7710451;32;39934;-82
2023/03/03 16:49:24;;;;;;;27.65;16.37;;;;;;;13.17;32.73;99741.66;7710653;32;37681;-82
2023/03/03 16:53:46;;;;;;;33.38;16.52;;;;;;;12.84;33.26;99743.38;7712005;32;37367;-82
2023/03/03 16:58:15;;;;;;;30.50;16.37;;;;;;;11.83;35.05;99756.34;7711540;32;39392;-82
2023/03/03 17:03:00;;;;;;;37.85;18.95;;;;;;;11.91;34.76;99760.44;7710991;32;39968;-83
2023/03/03 17:07:37;;;;;;;36.30;19.50;;;;;;;11.78;34.81;99766.47;7710829;32;38751;-82
2023/03/03 17:12:15;;;;;;;34.92;20.12;;;;;;;11.91;34.71;99765.91;7711981;32;37817;-82
2023/03/03 17:16:49;;;;;;;43.20;22.33;;;;;;;11.57;35.49;99780.22;7711815;32;39248;-82
2023/03/03 17:21:36;;;;;;;42.47;22.02;;;;;;;11.56;35.50;99781.31;7711698;32;40756;-81
2023/03/03 17:26:11;;;;;;;38.03;20.00;;;;;;;11.70;35.23;99780.72;7711331;32;38636;-82
2023/03/03 17:30:39;;;;;;;35.67;19.55;;;;;;;11.42;35.86;99775.62;7712234;32;37055;-82
2023/03/03 17:35:06;;;;;;;32.22;18.50;;;;;;;11.25;36.39;99780.59;7711552;32;39188;-83
2023/03/03 17:39:41;;;;;;;42.25;20.98;;;;;;;10.98;36.72;99780.91;7711582;32;40480;-82
2023/03/03 17:44:23;;;;;;;39.38;20.52;;;;;;;10.86;37.00;99781.19;7711661;32;38017;-83
2023/03/03 17:49:00;;;;;;;42.03;21.50;;;;;;;10.81;37.24;99792.09;7710920;32;37809;-82
2023/03/03 17:53:36;;;;;;;39.22;20.98;;;;;;;10.54;37.74;99793.19;7711830;32;40188;-83
2023/03/03 17:58:17;;;;;;;39.67;21.05;;;;;;;10.62;37.36;99794.56;7710768;32;39601;-82
2023/03/03 18:02:36;;;;;;;45.72;21.42;;;;;;;10.37;37.81;99798.91;7710288;32;38658;-83
2023/03/03 18:07:12;;;;;;;40.63;21.85;;;;;;;10.65;37.04;99797.53;7711218;32;37170;-82
2023/03/03 18:11:50;;;;;;;39.33;21.27;;;;;;;10.56;37.28;99796.47;7710862;32;40074;-82
2023/03/03 18:16:48;;;;;;;41.60;22.35;;;;;;;10.31;37.80;99795.34;7711375;32;41037;-82
2023/03/03 18:21:24;;;;;;;42.13;22.58;;;;;;;10.30;37.94;99801.03;7709657;32;37767;-82
2023/03/03 18:25:56;;;;;;;40.58;22.83;;;;;;;10.16;38.31;99806.19;7710962;32;37221;-83
2023/03/03 18:30:23;;;;;;;46.28;23.73;;;;;;;10.38;37.83;99810.59;7711293;32;39959;-82
2023/03/03 18:34:40;;;;;;;44.60;22.35;;;;;;;10.28;38.04;99808.66;7709434;32;40023;-82
2023/03/03 18:38:58;;;;;;;50.08;23.33;;;;;;;10.05;38.57;99812.66;7709725;32;38084;-81
2023/03/03 18:43:53;;;;;;;47.90;22.05;;;;;;;10.23;38.18;99814.09;7709788;32;37219;-82
2023/03/03 18:48:13;;;;;;;43.45;24.02;;;;;;;10.10;38.80;99821.66;7711112;32;40054;-81
2023/03/03 18:52:31;;;;;;;44.63;23.73;;;;;;;9.93;38.88;99829.25;7709921;32;40672;-81
2023/03/03 18:57:12;;;;;;;47.10;23.48;;;;;;;9.95;38.71;99824.34;7728980;32;37903;-81
2023/03/03 19:01:32;;;;;;;39.35;23.12;;;;;;;9.75;39.43;99831.34;7736476;32;37217;-81
2023/03/03 19:05:52;;;;;;;48.65;24.33;;;;;;;9.86;39.39;99834.13;7737604;32;39349;-82
2023/03/03 19:10:21;;;;;;;43.72;23.25;;;;;;;9.63;39.76;99838.09;7737362;32;39582;-81
2023/03/03 19:14:39;;;;;;;44.95;25.15;;;;;;;9.64;39.90;99837.00;7737140;32;37617;-81
2023/03/03 19:19:00;;;;;;;43.87;24.45;;;;;;;9.37;40.12;99838.78;7736325;32;37785;-81
2023/03/03 19:23:58;;;;;;;51.80;27.37;;;;;;;9.24;40.57;99841.13;7727494;32;39981;-82
2023/03/03 19:28:50;;;;;;;55.83;25.65;;;;;;;9.15;40.65;99838.06;7727420;32;39889;-82
2023/03/03 19:33:20;;;;;;;53.87;27.58;;;;;;;9.53;39.99;99836.94;7660464;32;37766;-82
2023/03/03 19:38:02;;;;;;;59.33;28.27;;;;;;;9.28;40.46;99836.78;7735899;32;37893;-81
2023/03/03 19:42:46;;;;;;;61.45;26.83;;;;;;;8.80;41.39;99847.59;7708224;32;40018;-81
2023/03/03 19:47:35;;;;;;;54.67;27.62;;;;;;;8.72;41.52;99845.34;7708742;32;39897;-80
2023/03/03 19:52:21;;;;;;;48.85;26.60;;;;;;;8.56;41.83;99847.91;7708835;32;37480;-81
2023/03/03 19:56:54;;;;;;;55.88;28.30;;;;;;;8.37;41.94;99849.31;7703238;32;37210;-80
2023/03/03 20:01:19;;;;;;;48.92;25.85;;;;;;;8.59;41.52;99855.56;7711603;32;39974;-81
2023/03/03 20:05:45;;;;;;;55.60;25.00;;;;;;;8.53;41.83;99859.28;7734840;32;39825;-82
2023/03/03 20:10:14;;;;;;;50.95;26.05;;;;;;;8.73;41.30;99852.44;7714471;32;37573;-80
2023/03/03 20:14:44;;;;;;;50.78;26.23;;;;;;;8.69;41.21;99854.00;7711703;32;37245;-82
2023/03/03 20:19:38;;;;;;;55.45;26.90;;;;;;;8.24;41.94;99861.41;7711654;32;39757;-80
2023/03/03 20:24:17;;;;;;;50.25;26.37;;;;;;;8.27;41.91;99850.84;7712292;32;40296;-81
2023/03/03 20:28:39;;;;;;;53.03;25.08;;;;;;;8.13;42.32;99862.38;7721688;32;37989;-81
2023/03/03 20:33:27;;;;;;;47.95;25.20;;;;;;;7.92;42.62;99858.56;7730226;32;37057;-82